Time;durP1;ratioP1;P1;durP2;ratioP2;P2;SDS_P1;SDS_P2;PMS_P1;PMS_P2;Temp;Humidity;BMP_temperature;BMP_pressure;BME280_temperature;BME280_humidity;BME280_pressure;Samples;Min_cycle;Max_cycle;Signal;HPM_P1;HPM_P2
2023/04/06 00:01:38;;;;;;;20.25;12.73;;;0.20;91.90;;;;;;5087158;28;20020;-63
2023/04/06 00:04:03;;;;;;;21.45;11.93;;;0.20;92.80;;;;;;5088760;28;20124;-64
2023/04/06 00:06:29;;;;;;;20.80;13.43;;;0.10;93.00;;;;;;5083811;28;20104;-64
2023/04/06 00:08:55;;;;;;;19.58;11.32;;;0.00;93.00;;;;;;5087440;28;20482;-64
2023/04/06 00:11:21;;;;;;;21.33;13.15;;;0.00;92.50;;;;;;5092256;28;20028;-64
2023/04/06 00:13:47;;;;;;;21.50;12.95;;;0.00;92.70;;;;;;5078210;28;20025;-64
2023/04/06 00:16:12;;;;;;;19.30;12.73;;;-0.10;93.60;;;;;;5091021;28;20111;-64
2023/04/06 00:18:43;;;;;;;18.25;12.13;;;-0.10;93.40;;;;;;5081076;28;20063;-64
2023/04/06 00:21:12;;;;;;;18.30;11.68;;;-0.20;94.00;;;;;;5075169;28;20097;-65
2023/04/06 00:23:38;;;;;;;19.08;11.70;;;-0.20;93.70;;;;;;5081195;28;20546;-64
2023/04/06 00:26:04;;;;;;;19.08;12.00;;;-0.20;93.50;;;;;;5087783;28;20032;-63
2023/04/06 00:28:29;;;;;;;16.45;11.80;;;-0.10;93.10;;;;;;5084653;28;20021;-63
2023/04/06 00:30:55;;;;;;;20.38;13.27;;;-0.10;93.30;;;;;;5077087;28;20028;-64
2023/04/06 00:33:22;;;;;;;21.73;11.80;;;-0.10;93.60;;;;;;5079583;28;20073;-66
2023/04/06 00:35:48;;;;;;;17.30;11.85;;;-0.20;94.00;;;;;;5083521;28;20423;-66
2023/04/06 00:38:14;;;;;;;17.17;11.73;;;-0.40;94.20;;;;;;5082524;28;20040;-65
2023/04/06 00:40:40;;;;;;;21.20;13.27;;;-0.30;93.60;;;;;;5083301;28;20028;-67
2023/04/06 00:43:07;;;;;;;17.42;11.52;;;-0.30;93.10;;;;;;5080437;28;20127;-65
2023/04/06 00:45:33;;;;;;;17.83;11.20;;;-0.30;93.20;;;;;;5089067;28;20103;-65
2023/04/06 00:47:59;;;;;;;17.25;11.60;;;-0.10;92.40;;;;;;5088044;28;20066;-65
2023/04/06 00:50:27;;;;;;;18.45;11.65;;;0.00;92.00;;;;;;5085726;28;20032;-65
2023/04/06 00:52:54;;;;;;;16.70;11.02;;;0.00;91.40;;;;;;5095991;28;20080;-65
2023/04/06 00:55:20;;;;;;;16.52;10.45;;;0.20;90.80;;;;;;5085498;28;20484;-65
2023/04/06 00:57:50;;;;;;;18.10;11.43;;;0.10;90.50;;;;;;5085464;28;20060;-65
2023/04/06 01:00:16;;;;;;;18.45;11.45;;;0.20;90.30;;;;;;5080860;28;20329;-65
2023/04/06 01:02:42;;;;;;;18.58;11.27;;;0.20;90.20;;;;;;5085852;28;20020;-65
2023/04/06 01:05:08;;;;;;;15.63;10.80;;;0.10;90.20;;;;;;5090474;28;20019;-64
2023/04/06 01:07:33;;;;;;;16.52;11.45;;;0.10;90.90;;;;;;5083164;28;20033;-65
2023/04/06 01:09:59;;;;;;;16.13;10.73;;;0.00;91.00;;;;;;5078433;28;20024;-65
2023/04/06 01:12:25;;;;;;;19.35;11.52;;;0.00;90.90;;;;;;5091009;28;20099;-64
2023/04/06 01:14:50;;;;;;;18.55;11.60;;;0.00;90.70;;;;;;5082858;28;20036;-65
2023/04/06 01:17:16;;;;;;;18.75;11.45;;;0.00;91.00;;;;;;5079317;28;20024;-65
2023/04/06 01:19:42;;;;;;;16.65;11.13;;;-0.10;90.90;;;;;;5088890;28;20028;-66
2023/04/06 01:22:07;;;;;;;17.33;11.80;;;-0.10;91.00;;;;;;5090092;28;20024;-65
2023/04/06 01:24:33;;;;;;;18.42;11.63;;;-0.20;91.60;;;;;;5081343;28;20017;-64
2023/04/06 01:27:00;;;;;;;17.40;11.43;;;-0.40;92.10;;;;;;5090714;28;20294;-65
2023/04/06 01:29:26;;;;;;;15.38;11.13;;;-0.40;92.20;;;;;;5088634;28;20028;-64
2023/04/06 01:31:51;;;;;;;18.02;11.55;;;-0.40;92.60;;;;;;5074283;28;20029;-65
2023/04/06 01:34:17;;;;;;;19.05;11.55;;;-0.40;92.60;;;;;;5075696;28;20028;-64
2023/04/06 01:36:42;;;;;;;17.88;11.93;;;-0.50;92.90;;;;;;5076500;28;20017;-65
2023/04/06 01:39:08;;;;;;;19.15;12.10;;;-0.60;93.60;;;;;;5081464;28;20029;-63
2023/04/06 01:41:34;;;;;;;18.95;12.90;;;-0.70;93.80;;;;;;5078091;28;20118;-64
2023/04/06 01:43:59;;;;;;;18.55;12.60;;;-0.80;94.20;;;;;;5085480;28;20028;-64
2023/04/06 01:46:26;;;;;;;18.55;12.68;;;-0.80;94.20;;;;;;5077082;28;20052;-64
2023/04/06 01:48:51;;;;;;;20.65;13.40;;;-0.70;93.60;;;;;;5083814;28;20371;-64
2023/04/06 01:51:17;;;;;;;18.90;12.05;;;-0.70;93.50;;;;;;5080580;28;20028;-65
2023/04/06 01:53:42;;;;;;;18.67;11.18;;;-0.70;93.20;;;;;;5083417;28;20453;-65
2023/04/06 01:56:08;;;;;;;18.38;11.45;;;-0.60;92.60;;;;;;5077842;28;20417;-65
2023/04/06 01:58:34;;;;;;;15.52;10.55;;;-0.40;91.70;;;;;;5077539;28;20063;-64
2023/04/06 02:01:00;;;;;;;17.23;11.10;;;-0.30;91.30;;;;;;5078322;28;20029;-64
2023/04/06 02:03:25;;;;;;;16.45;11.05;;;-0.20;90.40;;;;;;5093647;28;20032;-65
2023/04/06 02:05:51;;;;;;;17.15;11.90;;;-0.10;90.10;;;;;;5083063;28;20179;-65
2023/04/06 02:08:16;;;;;;;15.88;11.20;;;-0.10;90.00;;;;;;5077092;28;20024;-64
2023/04/06 02:10:42;;;;;;;18.20;11.60;;;-0.10;89.90;;;;;;5080117;28;20043;-65
2023/04/06 02:13:07;;;;;;;17.85;11.68;;;-0.10;89.90;;;;;;5076030;28;20040;-65
2023/04/06 02:15:33;;;;;;;17.77;10.75;;;0.00;89.20;;;;;;5084093;28;20025;-64
2023/04/06 02:17:59;;;;;;;20.13;11.40;;;0.00;89.30;;;;;;5089086;28;20050;-64
2023/04/06 02:20:25;;;;;;;19.45;11.20;;;-0.10;89.30;;;;;;5078215;28;20024;-65
2023/04/06 02:22:50;;;;;;;19.67;11.15;;;-0.20;90.10;;;;;;5089371;28;20482;-64
2023/04/06 02:25:16;;;;;;;18.52;10.88;;;-0.20;89.70;;;;;;5085025;28;20028;-65
2023/04/06 02:27:42;;;;;;;18.75;10.82;;;-0.10;89.30;;;;;;5077776;28;20021;-65
2023/04/06 02:30:08;;;;;;;15.00;10.48;;;-0.10;89.90;;;;;;5077275;28;20070;-65
2023/04/06 02:32:33;;;;;;;17.77;11.07;;;-0.10;89.30;;;;;;5077158;28;20086;-65
2023/04/06 02:35:00;;;;;;;17.13;11.38;;;0.00;89.40;;;;;;5086825;28;20115;-65
2023/04/06 02:37:25;;;;;;;19.30;11.02;;;0.00;89.20;;;;;;5080911;28;20075;-65
2023/04/06 02:39:51;;;;;;;16.65;11.10;;;0.10;88.90;;;;;;5083900;28;20417;-65
2023/04/06 02:42:16;;;;;;;16.98;11.40;;;0.00;88.90;;;;;;5082982;28;20024;-65
2023/04/06 02:44:42;;;;;;;16.42;10.35;;;0.00;89.20;;;;;;5080571;28;20023;-64
2023/04/06 02:47:08;;;;;;;19.67;11.45;;;-0.10;89.00;;;;;;5082750;28;20052;-65
2023/04/06 02:49:33;;;;;;;19.70;11.23;;;-0.20;89.70;;;;;;5087533;28;20102;-64
2023/04/06 02:51:59;;;;;;;18.67;11.00;;;-0.20;90.10;;;;;;5089502;28;20093;-65
2023/04/06 02:54:25;;;;;;;16.33;10.50;;;-0.20;89.70;;;;;;5083684;28;20098;-65
2023/04/06 02:56:53;;;;;;;16.13;10.73;;;-0.20;89.70;;;;;;5080147;28;20165;-65
2023/04/06 02:59:19;;;;;;;19.88;11.95;;;-0.20;89.60;;;;;;5077308;28;20706;-65
2023/04/06 03:01:47;;;;;;;19.60;11.07;;;-0.20;89.70;;;;;;5075728;28;20056;-64
2023/04/06 03:04:14;;;;;;;18.63;11.75;;;-0.20;89.70;;;;;;5088155;28;20090;-65
2023/04/06 03:06:40;;;;;;;17.77;10.85;;;-0.20;90.00;;;;;;5074035;28;20413;-65
2023/04/06 03:09:06;;;;;;;18.02;11.45;;;-0.20;89.70;;;;;;5077901;28;20047;-65
2023/04/06 03:11:31;;;;;;;15.90;10.52;;;-0.20;89.70;;;;;;5080064;28;20023;-65
2023/04/06 03:13:57;;;;;;;18.90;11.48;;;-0.20;90.00;;;;;;5078945;28;20412;-65
2023/04/06 03:16:22;;;;;;;17.63;10.48;;;-0.20;89.70;;;;;;5078943;28;20031;-65
2023/04/06 03:18:48;;;;;;;17.65;11.23;;;-0.30;89.90;;;;;;5079638;28;20310;-64
2023/04/06 03:21:15;;;;;;;18.48;12.05;;;-0.30;90.10;;;;;;5077781;28;20385;-64
2023/04/06 03:23:43;;;;;;;18.65;11.48;;;-0.40;90.50;;;;;;5077345;28;20309;-64
2023/04/06 03:26:08;;;;;;;18.15;10.77;;;-0.50;90.70;;;;;;5076867;28;20032;-64
2023/04/06 03:28:34;;;;;;;16.15;10.82;;;-0.40;90.50;;;;;;5077809;28;20028;-65
2023/04/06 03:31:01;;;;;;;21.42;12.07;;;-0.40;90.10;;;;;;5079947;28;20036;-65
2023/04/06 03:33:27;;;;;;;18.52;11.65;;;-0.30;89.80;;;;;;5081471;28;20436;-65
2023/04/06 03:35:53;;;;;;;18.40;11.25;;;-0.30;89.60;;;;;;5084428;28;20029;-65
2023/04/06 03:38:19;;;;;;;17.40;11.00;;;-0.20;89.40;;;;;;5083921;28;20106;-65
2023/04/06 03:40:44;;;;;;;18.75;10.93;;;-0.10;88.70;;;;;;5074420;28;20111;-66
2023/04/06 03:43:10;;;;;;;17.20;10.60;;;-0.10;88.80;;;;;;5074207;28;20046;-65
2023/04/06 03:45:35;;;;;;;19.15;11.95;;;-0.10;88.80;;;;;;5080398;28;20044;-65
2023/04/06 03:48:01;;;;;;;17.90;11.45;;;-0.10;88.80;;;;;;5079920;28;20056;-64
2023/04/06 03:50:26;;;;;;;18.42;11.90;;;-0.30;89.10;;;;;;5079333;28;20028;-65
2023/04/06 03:52:55;;;;;;;19.52;11.55;;;-0.40;89.70;;;;;;5086132;28;20024;-65
2023/04/06 03:55:21;;;;;;;18.90;11.38;;;-0.50;90.60;;;;;;5072783;28;20032;-65
2023/04/06 03:57:46;;;;;;;19.52;11.77;;;-0.70;90.70;;;;;;5080021;28;20670;-65
2023/04/06 04:00:12;;;;;;;19.70;11.20;;;-0.80;91.30;;;;;;5075647;28;20032;-66
2023/04/06 04:02:38;;;;;;;19.10;12.05;;;-0.80;91.80;;;;;;5088226;28;20025;-65
2023/04/06 04:05:04;;;;;;;20.33;12.40;;;-0.90;92.20;;;;;;5078442;28;20043;-65
2023/04/06 04:07:30;;;;;;;20.20;12.00;;;-1.00;92.60;;;;;;5074470;28;20020;-65
2023/04/06 04:09:55;;;;;;;21.35;11.77;;;-1.10;93.20;;;;;;5072057;28;20036;-65
2023/04/06 04:12:21;;;;;;;18.83;12.20;;;-1.10;93.60;;;;;;5079976;28;20354;-65
2023/04/06 04:14:46;;;;;;;22.42;13.32;;;-1.20;93.60;;;;;;5078628;28;20111;-65
2023/04/06 04:17:12;;;;;;;19.20;11.80;;;-1.20;93.70;;;;;;5071179;28;20042;-65
2023/04/06 04:19:38;;;;;;;19.77;12.35;;;-1.30;93.70;;;;;;5072856;28;20032;-65
2023/04/06 04:22:04;;;;;;;20.67;12.10;;;-1.30;94.10;;;;;;5083529;28;20016;-65
2023/04/06 04:24:30;;;;;;;21.23;12.32;;;-1.30;94.00;;;;;;5075769;28;20313;-64
2023/04/06 04:26:56;;;;;;;23.52;11.70;;;-1.10;93.50;;;;;;5079451;28;20028;-65
2023/04/06 04:29:22;;;;;;;18.48;11.68;;;-0.90;92.80;;;;;;5078095;28;20036;-65
2023/04/06 04:31:48;;;;;;;18.63;11.43;;;-0.80;92.20;;;;;;5079732;28;20016;-65
2023/04/06 04:34:15;;;;;;;19.38;11.38;;;-0.80;92.00;;;;;;5076810;28;20016;-65
2023/04/06 04:36:41;;;;;;;19.85;11.32;;;-0.70;91.70;;;;;;5085305;28;20022;-65
2023/04/06 04:39:07;;;;;;;20.45;12.52;;;-0.70;91.60;;;;;;5097847;28;20019;-64
2023/04/06 04:41:33;;;;;;;22.75;14.73;;;-0.80;91.70;;;;;;5079107;28;20036;-65
2023/04/06 04:43:58;;;;;;;19.50;12.05;;;-0.90;92.00;;;;;;5077787;28;20085;-65
2023/04/06 04:46:24;;;;;;;20.50;12.15;;;-1.10;92.90;;;;;;5078948;28;20056;-65
2023/04/06 04:48:49;;;;;;;20.90;13.07;;;-1.20;93.30;;;;;;5079554;28;20035;-65
2023/04/06 04:51:15;;;;;;;23.05;15.25;;;-1.20;93.30;;;;;;5077546;28;20102;-65
2023/04/06 04:53:41;;;;;;;31.50;18.17;;;-1.20;93.40;;;;;;5078686;28;20068;-65
2023/04/06 04:56:06;;;;;;;26.92;16.08;;;-1.30;94.30;;;;;;5078046;28;20028;-64
2023/04/06 04:58:32;;;;;;;35.88;17.73;;;-1.40;94.70;;;;;;5085529;28;20051;-64
2023/04/06 05:00:57;;;;;;;27.25;16.20;;;-1.60;95.30;;;;;;5084693;28;20023;-64
2023/04/06 05:03:25;;;;;;;22.02;12.75;;;-1.70;95.80;;;;;;5088106;28;20836;-65
2023/04/06 05:05:50;;;;;;;24.90;14.05;;;-1.80;95.90;;;;;;5091863;28;20028;-65
2023/04/06 05:08:16;;;;;;;43.67;25.00;;;-1.80;96.30;;;;;;5097611;28;20432;-65
2023/04/06 05:10:42;;;;;;;60.47;32.75;;;-1.80;96.40;;;;;;5081999;28;20474;-65
2023/04/06 05:13:08;;;;;;;26.52;16.08;;;-1.80;96.60;;;;;;5075891;28;20036;-65
2023/04/06 05:15:40;;;;;;;34.83;21.60;;;-1.90;96.70;;;;;;5077337;28;20388;-64
2023/04/06 05:18:15;;;;;;;90.82;53.67;;;-1.90;96.70;;;;;;5077752;28;20429;-64
2023/04/06 05:20:42;;;;;;;42.20;24.35;;;-1.90;97.10;;;;;;5081448;28;20402;-64
2023/04/06 05:23:07;;;;;;;41.95;27.90;;;-1.80;97.20;;;;;;5078697;28;20115;-65
2023/04/06 05:25:33;;;;;;;32.20;20.15;;;-1.80;97.00;;;;;;5078352;28;20108;-65
2023/04/06 05:28:01;;;;;;;31.60;21.45;;;-1.80;97.00;;;;;;5080284;28;20086;-64
2023/04/06 05:30:28;;;;;;;27.92;19.08;;;-1.70;97.00;;;;;;5094434;28;20293;-64
2023/04/06 05:32:54;;;;;;;29.58;19.75;;;-1.70;97.00;;;;;;5087676;28;20055;-65
2023/04/06 05:35:19;;;;;;;30.67;19.30;;;-1.70;96.90;;;;;;5093054;28;20028;-65
2023/04/06 05:37:45;;;;;;;31.75;18.35;;;-1.70;97.10;;;;;;5091812;28;20033;-65
2023/04/06 05:40:11;;;;;;;26.50;16.85;;;-1.80;97.20;;;;;;5097679;28;20032;-65
2023/04/06 05:42:42;;;;;;;25.38;16.63;;;-1.80;97.30;;;;;;5092358;28;20054;-64
2023/04/06 05:45:09;;;;;;;21.05;15.10;;;-1.70;97.50;;;;;;5080557;28;20081;-65
2023/04/06 05:47:35;;;;;;;24.45;15.65;;;-1.60;97.30;;;;;;5077838;28;20023;-65
2023/04/06 05:50:00;;;;;;;26.98;16.73;;;-1.40;97.00;;;;;;5078156;28;20024;-65
2023/04/06 05:52:26;;;;;;;25.00;15.43;;;-1.30;96.70;;;;;;5091232;28;20035;-64
2023/04/06 05:54:52;;;;;;;23.35;14.82;;;-1.30;96.60;;;;;;5077262;28;20095;-65
2023/04/06 05:57:18;;;;;;;25.50;15.73;;;-1.20;96.50;;;;;;5080104;28;20031;-64
2023/04/06 05:59:44;;;;;;;23.40;15.18;;;-1.00;96.50;;;;;;5094022;28;20048;-65
2023/04/06 06:02:09;;;;;;;21.85;13.93;;;-0.90;96.50;;;;;;5084278;28;20031;-65
2023/04/06 06:04:35;;;;;;;20.77;14.10;;;-0.70;96.20;;;;;;5082287;28;20036;-65
2023/04/06 06:07:00;;;;;;;20.55;13.32;;;-0.50;95.20;;;;;;5087801;28;20030;-65
2023/04/06 06:09:29;;;;;;;21.90;12.95;;;-0.30;94.50;;;;;;5081632;28;20479;-65
2023/04/06 06:11:55;;;;;;;18.17;13.25;;;0.00;93.70;;;;;;5092645;28;20032;-64
2023/04/06 06:14:21;;;;;;;15.65;10.60;;;0.20;93.40;;;;;;5078309;28;20020;-64
2023/04/06 06:16:47;;;;;;;130.80;61.45;;;0.70;92.60;;;;;;5086790;28;20060;-64
2023/04/06 06:19:12;;;;;;;38.28;25.02;;;1.40;90.50;;;;;;5085415;28;20444;-64
2023/04/06 06:21:38;;;;;;;36.00;22.50;;;1.90;88.30;;;;;;5089539;28;20031;-63
2023/04/06 06:24:04;;;;;;;29.35;20.08;;;2.30;87.30;;;;;;5081143;28;20044;-65
2023/04/06 06:26:29;;;;;;;29.52;18.88;;;2.80;86.50;;;;;;5089423;28;20091;-66
2023/04/06 06:28:55;;;;;;;36.15;21.48;;;3.40;84.80;;;;;;5090120;28;20035;-65
2023/04/06 06:31:22;;;;;;;32.25;20.45;;;3.70;82.50;;;;;;5084374;28;20063;-66
2023/04/06 06:33:50;;;;;;;101.90;55.53;;;3.60;81.40;;;;;;5090632;28;20066;-64
2023/04/06 06:36:17;;;;;;;73.68;42.47;;;3.30;81.40;;;;;;5073459;28;20455;-64
2023/04/06 06:38:42;;;;;;;78.82;44.97;;;3.00;82.30;;;;;;5061658;28;20032;-64
2023/04/06 06:41:08;;;;;;;53.58;33.78;;;2.90;83.10;;;;;;5061103;28;20032;-65
2023/04/06 06:43:33;;;;;;;51.00;31.15;;;2.80;83.50;;;;;;5067081;28;20086;-65
2023/04/06 06:45:59;;;;;;;29.55;21.25;;;2.80;83.30;;;;;;5065646;28;20024;-64
2023/04/06 06:48:24;;;;;;;29.23;17.55;;;2.70;83.60;;;;;;5062456;28;20032;-65
2023/04/06 06:50:50;;;;;;;34.45;18.67;;;2.80;84.00;;;;;;5061999;28;20048;-65
2023/04/06 06:53:20;;;;;;;33.47;22.08;;;2.80;84.60;;;;;;5062651;28;20036;-64
2023/04/06 06:55:45;;;;;;;31.08;19.95;;;2.90;84.40;;;;;;5069249;28;21666;-64
2023/04/06 06:58:11;;;;;;;29.52;17.92;;;2.90;84.10;;;;;;5062684;28;20041;-64
2023/04/06 07:00:36;;;;;;;27.33;18.08;;;3.00;83.70;;;;;;5077611;28;20033;-64
2023/04/06 07:03:02;;;;;;;26.35;16.23;;;3.10;82.90;;;;;;5074195;28;20080;-65
2023/04/06 07:05:27;;;;;;;23.30;15.60;;;3.10;82.00;;;;;;5074899;28;20085;-64
2023/04/06 07:07:54;;;;;;;25.08;15.65;;;3.10;81.90;;;;;;5087211;28;20103;-64
2023/04/06 07:10:20;;;;;;;25.58;15.82;;;3.30;81.70;;;;;;5075764;28;20028;-65
2023/04/06 07:12:46;;;;;;;25.45;16.02;;;3.50;81.00;;;;;;5083289;28;20035;-65
2023/04/06 07:15:11;;;;;;;23.58;15.15;;;3.70;80.40;;;;;;5066157;28;20112;-64
2023/04/06 07:17:44;;;;;;;24.33;14.02;;;3.90;79.80;;;;;;5081372;28;20052;-65
2023/04/06 07:20:10;;;;;;;19.47;13.87;;;4.10;78.80;;;;;;5065090;28;20182;-65
2023/04/06 07:22:36;;;;;;;20.95;14.45;;;4.30;77.50;;;;;;5066905;28;20429;-65
2023/04/06 07:25:01;;;;;;;20.48;12.82;;;4.60;76.90;;;;;;5064253;28;20028;-64
2023/04/06 07:27:27;;;;;;;20.05;14.48;;;4.70;76.30;;;;;;5073511;28;20356;-64
2023/04/06 07:29:53;;;;;;;23.38;16.17;;;4.80;76.30;;;;;;5069791;28;20034;-64
2023/04/06 07:32:18;;;;;;;22.45;16.00;;;4.90;76.50;;;;;;5070745;28;20020;-65
2023/04/06 07:34:47;;;;;;;21.13;14.43;;;5.20;76.40;;;;;;5071130;28;20064;-65
2023/04/06 07:37:13;;;;;;;21.27;13.93;;;5.40;75.80;;;;;;5073931;28;20031;-65
2023/04/06 07:39:38;;;;;;;19.00;11.23;;;5.60;72.90;;;;;;5081529;28;20077;-64
2023/04/06 07:42:04;;;;;;;19.30;12.52;;;5.80;71.10;;;;;;5078380;28;20044;-64
2023/04/06 07:44:29;;;;;;;18.88;11.55;;;5.90;71.60;;;;;;5082146;28;20024;-65
2023/04/06 07:46:55;;;;;;;19.48;12.18;;;6.00;70.80;;;;;;5084047;28;20073;-65
2023/04/06 07:49:22;;;;;;;18.27;11.52;;;6.10;70.80;;;;;;5078441;28;20066;-64
2023/04/06 07:51:48;;;;;;;16.15;10.23;;;6.10;70.80;;;;;;5080385;28;20085;-65
2023/04/06 07:54:13;;;;;;;17.38;11.57;;;6.20;71.10;;;;;;5082314;28;20416;-65
2023/04/06 07:56:39;;;;;;;17.08;9.35;;;6.30;71.80;;;;;;5087315;28;20032;-65
2023/04/06 07:59:04;;;;;;;16.30;10.57;;;6.50;71.70;;;;;;5078983;28;20049;-64
2023/04/06 08:01:30;;;;;;;16.23;8.55;;;6.70;70.40;;;;;;5093970;28;20182;-65
2023/04/06 08:03:56;;;;;;;14.80;9.50;;;6.80;67.20;;;;;;5094728;28;20427;-65
2023/04/06 08:06:22;;;;;;;16.27;9.50;;;6.80;68.30;;;;;;5082637;28;20091;-65
2023/04/06 08:08:48;;;;;;;17.73;8.98;;;7.30;68.30;;;;;;5082333;28;20024;-64
2023/04/06 08:11:13;;;;;;;12.45;8.40;;;8.40;66.20;;;;;;5083724;28;20349;-65
2023/04/06 08:13:39;;;;;;;13.38;8.10;;;9.50;62.80;;;;;;5077506;28;20131;-65
2023/04/06 08:16:05;;;;;;;11.20;7.68;;;10.50;59.90;;;;;;5090037;28;20289;-64
2023/04/06 08:18:30;;;;;;;13.80;7.53;;;10.90;59.80;;;;;;5086541;28;20029;-65
2023/04/06 08:20:56;;;;;;;15.02;8.10;;;11.40;57.70;;;;;;5083165;28;20025;-65
2023/04/06 08:23:22;;;;;;;13.18;7.68;;;11.70;57.20;;;;;;5079727;28;20321;-65
2023/04/06 08:25:47;;;;;;;12.52;8.20;;;11.70;56.30;;;;;;5079437;28;20029;-65
2023/04/06 08:28:13;;;;;;;14.38;8.30;;;12.20;56.10;;;;;;5079556;28;20020;-65
2023/04/06 08:30:42;;;;;;;13.48;7.90;;;12.60;55.60;;;;;;5083901;28;20137;-65
2023/04/06 08:33:08;;;;;;;10.82;6.97;;;13.70;54.40;;;;;;5095742;28;20035;-65
2023/04/06 08:35:34;;;;;;;12.52;7.78;;;13.50;52.70;;;;;;5082684;28;20065;-65
2023/04/06 08:38:00;;;;;;;11.02;7.07;;;13.20;53.80;;;;;;5092472;28;20055;-65
2023/04/06 08:40:25;;;;;;;16.73;8.07;;;13.20;52.70;;;;;;5080728;28;20036;-65
2023/04/06 08:43:03;;;;;;;12.57;6.53;;;13.40;53.70;;;;;;5095896;28;20032;-65
2023/04/06 08:45:29;;;;;;;13.73;7.70;;;13.90;51.50;;;;;;5093248;28;20043;-66
2023/04/06 08:47:57;;;;;;;11.00;6.82;;;13.90;52.10;;;;;;5089575;28;20028;-66
2023/04/06 08:50:24;;;;;;;13.02;7.68;;;13.90;51.60;;;;;;5083792;28;20119;-66
2023/04/06 08:52:53;;;;;;;10.48;7.28;;;13.10;52.10;;;;;;5078143;28;20024;-66
2023/04/06 08:55:19;;;;;;;10.23;6.65;;;12.90;53.70;;;;;;5077767;28;20036;-66
2023/04/06 08:57:46;;;;;;;10.18;6.35;;;13.50;52.40;;;;;;5082484;28;20117;-65
2023/04/06 09:00:15;;;;;;;10.20;6.40;;;13.40;51.00;;;;;;5082877;28;20377;-65
2023/04/06 09:02:43;;;;;;;12.35;7.47;;;14.20;49.80;;;;;;5080951;28;20052;-65
2023/04/06 09:05:10;;;;;;;10.82;6.55;;;14.40;52.10;;;;;;5084103;28;20482;-65
2023/04/06 09:07:36;;;;;;;11.43;6.20;;;14.00;50.30;;;;;;5078388;28;20060;-64
2023/04/06 09:10:03;;;;;;;8.85;5.70;;;14.00;51.10;;;;;;5082883;28;20306;-65
2023/04/06 09:12:31;;;;;;;9.30;5.43;;;15.00;50.60;;;;;;5080407;28;20036;-64
2023/04/06 09:15:00;;;;;;;8.07;4.75;;;14.90;47.60;;;;;;5078530;28;20405;-64
2023/04/06 09:17:32;;;;;;;12.27;6.20;;;14.20;48.30;;;;;;5078321;28;20033;-66
2023/04/06 09:19:59;;;;;;;9.35;5.60;;;13.60;49.30;;;;;;5088608;28;20467;-66
2023/04/06 09:22:26;;;;;;;10.27;5.60;;;13.20;49.10;;;;;;5089373;28;20037;-66
2023/04/06 09:24:53;;;;;;;9.25;5.20;;;13.60;49.40;;;;;;5077270;28;20024;-65
2023/04/06 09:27:38;;;;;;;9.20;5.80;;;13.30;50.00;;;;;;5077925;28;20024;-65
2023/04/06 09:30:13;;;;;;;12.38;6.45;;;14.00;49.20;;;;;;5082557;28;20031;-66
2023/04/06 09:32:54;;;;;;;9.93;5.93;;;13.50;50.30;;;;;;5089298;28;20067;-65
2023/04/06 09:35:20;;;;;;;9.85;5.97;;;13.50;50.80;;;;;;5077298;28;20041;-65
2023/04/06 09:37:47;;;;;;;8.80;5.53;;;13.20;50.50;;;;;;5077231;28;20028;-65
2023/04/06 09:40:17;;;;;;;10.70;5.97;;;13.40;50.40;;;;;;5076868;28;20029;-64
2023/04/06 09:42:46;;;;;;;10.60;6.18;;;13.60;49.10;;;;;;5082120;28;20025;-64
2023/04/06 09:45:11;;;;;;;11.23;6.72;;;14.40;48.80;;;;;;5088770;28;20051;-65
2023/04/06 09:47:40;;;;;;;9.50;6.18;;;14.90;49.70;;;;;;5081105;28;20028;-62
2023/04/06 09:50:08;;;;;;;11.27;6.40;;;15.20;47.80;;;;;;5074454;28;20063;-65
2023/04/06 09:52:48;;;;;;;11.27;6.65;;;15.40;46.90;;;;;;5076602;28;20102;-64
2023/04/06 09:55:35;;;;;;;10.30;5.70;;;15.60;47.80;;;;;;5077526;28;20025;-64
2023/04/06 09:58:05;;;;;;;10.90;5.85;;;15.30;47.50;;;;;;5081713;28;20441;-64
2023/04/06 10:00:34;;;;;;;9.05;5.63;;;14.50;47.90;;;;;;5094860;28;20147;-64
2023/04/06 10:03:11;;;;;;;9.45;5.88;;;15.10;47.50;;;;;;5093928;28;20320;-64
2023/04/06 10:05:42;;;;;;;11.02;5.90;;;15.70;47.10;;;;;;5082632;28;20025;-65
2023/04/06 10:08:10;;;;;;;8.70;5.35;;;15.80;48.90;;;;;;5096516;28;20036;-65
2023/04/06 10:10:37;;;;;;;8.65;5.57;;;16.60;48.70;;;;;;5085335;28;20107;-65
2023/04/06 10:13:07;;;;;;;10.82;6.18;;;17.00;45.20;;;;;;5075755;28;20028;-65
2023/04/06 10:15:33;;;;;;;10.82;5.95;;;16.20;45.00;;;;;;5076911;28;20075;-64
2023/04/06 10:18:00;;;;;;;11.40;6.20;;;15.10;46.90;;;;;;5076833;28;20044;-64
2023/04/06 10:20:35;;;;;;;15.55;5.85;;;14.50;47.90;;;;;;5076350;28;20036;-64
2023/04/06 10:23:15;;;;;;;9.07;5.80;;;14.60;48.30;;;;;;5086793;28;20052;-64
2023/04/06 10:25:55;;;;;;;11.48;5.63;;;15.00;47.40;;;;;;5097042;28;20432;-65
2023/04/06 10:28:21;;;;;;;7.82;5.35;;;14.50;47.80;;;;;;5095738;28;20370;-64
2023/04/06 10:30:46;;;;;;;9.05;5.40;;;15.00;48.30;;;;;;5096504;28;20023;-65
2023/04/06 10:33:20;;;;;;;7.93;5.50;;;15.40;46.50;;;;;;5096919;28;20060;-65
2023/04/06 10:35:47;;;;;;;9.48;5.70;;;15.90;46.20;;;;;;5096734;28;20028;-65
2023/04/06 10:38:19;;;;;;;8.55;5.45;;;16.20;45.00;;;;;;5094937;28;20035;-65
2023/04/06 10:40:47;;;;;;;9.52;5.95;;;15.70;46.20;;;;;;5096654;28;20451;-64
2023/04/06 10:43:20;;;;;;;10.02;5.85;;;15.00;48.00;;;;;;5078287;28;20482;-64
2023/04/06 10:45:55;;;;;;;11.50;6.93;;;14.80;47.60;;;;;;5076450;28;20028;-65
2023/04/06 10:48:21;;;;;;;9.65;6.53;;;14.20;47.50;;;;;;5076301;28;20290;-65
2023/04/06 10:50:52;;;;;;;11.25;6.47;;;14.00;47.80;;;;;;5087644;28;20039;-64
2023/04/06 10:53:23;;;;;;;9.73;6.07;;;14.40;48.70;;;;;;5096665;28;20435;-65
2023/04/06 10:55:56;;;;;;;11.43;6.43;;;14.80;47.80;;;;;;5096465;28;20104;-65
2023/04/06 10:58:25;;;;;;;11.38;6.65;;;14.00;48.40;;;;;;5084190;28;20043;-65
2023/04/06 11:00:54;;;;;;;10.98;6.82;;;13.80;49.90;;;;;;5096115;28;20024;-64
2023/04/06 11:03:20;;;;;;;8.43;5.93;;;14.20;49.60;;;;;;5092104;28;20357;-65
2023/04/06 11:05:46;;;;;;;11.57;6.30;;;14.30;48.70;;;;;;5094196;28;20447;-64
2023/04/06 11:08:31;;;;;;;9.43;5.93;;;13.90;47.70;;;;;;5078705;28;20418;-64
2023/04/06 11:11:09;;;;;;;10.35;6.03;;;14.40;48.80;;;;;;5075980;28;20032;-64
2023/04/06 11:13:42;;;;;;;9.70;5.90;;;15.00;47.30;;;;;;5091585;28;20031;-65
2023/04/06 11:16:19;;;;;;;11.05;6.28;;;15.00;47.90;;;;;;5096232;28;20467;-65
2023/04/06 11:18:55;;;;;;;8.80;6.00;;;14.90;47.40;;;;;;5087967;28;20027;-64
2023/04/06 11:21:43;;;;;;;9.55;5.55;;;14.60;46.90;;;;;;5075417;28;20321;-64
2023/04/06 11:24:13;;;;;;;8.48;5.10;;;14.70;48.30;;;;;;5074290;28;20063;-64
2023/04/06 11:26:50;;;;;;;9.05;5.18;;;14.40;47.00;;;;;;5075951;28;20021;-65
2023/04/06 11:29:30;;;;;;;8.93;5.25;;;14.30;46.70;;;;;;5089483;28;20102;-65
2023/04/06 11:32:06;;;;;;;8.02;5.05;;;14.50;45.90;;;;;;5095926;28;20075;-65
2023/04/06 11:34:37;;;;;;;7.60;4.70;;;14.60;46.00;;;;;;5095979;28;20313;-66
2023/04/06 11:37:08;;;;;;;9.55;4.90;;;14.90;46.60;;;;;;5075712;28;20373;-64
2023/04/06 11:39:51;;;;;;;9.80;5.10;;;14.50;46.20;;;;;;5075566;28;20029;-64
2023/04/06 11:42:26;;;;;;;8.43;5.30;;;14.30;46.70;;;;;;5076978;28;20107;-65
2023/04/06 11:44:56;;;;;;;9.18;4.75;;;14.10;46.90;;;;;;5097230;28;20051;-64
2023/04/06 11:47:33;;;;;;;7.22;4.47;;;14.20;47.00;;;;;;5085904;28;20021;-64
2023/04/06 11:50:09;;;;;;;7.50;4.40;;;14.40;47.00;;;;;;5079648;28;20433;-65
2023/04/06 11:52:34;;;;;;;7.93;4.70;;;14.20;46.20;;;;;;5079806;28;20036;-65
2023/04/06 11:55:17;;;;;;;8.32;4.47;;;14.40;47.10;;;;;;5079490;28;20029;-64
2023/04/06 11:57:43;;;;;;;11.18;5.28;;;14.50;46.10;;;;;;5078863;28;20074;-65
2023/04/06 12:00:09;;;;;;;9.48;5.88;;;14.20;45.80;;;;;;5079460;28;20033;-63
2023/04/06 12:02:38;;;;;;;7.63;4.85;;;14.10;46.60;;;;;;5094942;28;20502;-63
2023/04/06 12:05:05;;;;;;;8.63;5.00;;;14.40;47.90;;;;;;5079511;28;20031;-63
2023/04/06 12:07:31;;;;;;;6.85;4.45;;;14.60;47.60;;;;;;5079344;28;20078;-63
2023/04/06 12:09:57;;;;;;;8.40;5.05;;;14.70;45.00;;;;;;5079320;28;20383;-63
2023/04/06 12:12:23;;;;;;;6.50;4.05;;;14.80;48.10;;;;;;5084580;28;20411;-65
2023/04/06 12:14:49;;;;;;;10.52;5.60;;;15.20;46.30;;;;;;5091901;28;20029;-64
2023/04/06 12:17:14;;;;;;;13.85;6.45;;;15.00;48.70;;;;;;5079330;28;20329;-65
2023/04/06 12:19:40;;;;;;;11.13;6.50;;;14.40;49.10;;;;;;5078990;28;20039;-65
2023/04/06 12:22:05;;;;;;;9.23;5.97;;;14.00;51.10;;;;;;5079166;28;20024;-65
2023/04/06 12:24:31;;;;;;;7.90;5.10;;;14.00;50.60;;;;;;5079159;28;20310;-64
2023/04/06 12:26:57;;;;;;;9.43;5.10;;;13.80;48.10;;;;;;5082876;28;20038;-65
2023/04/06 12:29:23;;;;;;;8.00;5.28;;;13.50;48.20;;;;;;5098274;28;20099;-64
2023/04/06 12:31:49;;;;;;;9.98;6.10;;;13.50;50.80;;;;;;5099173;28;20039;-65
2023/04/06 12:34:14;;;;;;;8.98;5.60;;;13.70;51.40;;;;;;5097348;28;20349;-64
2023/04/06 12:36:40;;;;;;;8.57;5.07;;;13.50;49.00;;;;;;5099159;28;20086;-64